Terminal Aerodrome Forecast
Issued by NWS Duluth, MN

Home | Current Version | Previous Version | Text Only | Print | Product List | Glossary On
Versions: 1 2 3 4 5 6 7 8 9 10 11 12 13 14 15 16 17 18 19 20 21 22
000
FTUS43 KDLH 051939 AAB
TAFDLH
TAF AMD
KDLH 051939Z 0520/0618 18012G20KT P6SM FEW200
     FM052300 10010KT P6SM VCTS BKN050CB
     FM060200 21011KT 5SM -RA VCTS OVC025CB
     FM060500 24011KT 5SM BR VCSH OVC025
     FM061300 35006KT P6SM SCT025 BKN060=

USA.gov is the U.S. government's official web portal to all federal, state and local government web resources and services.